Time;durP1;ratioP1;P1;durP2;ratioP2;P2;SDS_P1;SDS_P2;PMS_P1;PMS_P2;Temp;Humidity;BMP_temperature;BMP_pressure;BME280_temperature;BME280_humidity;BME280_pressure;Samples;Min_cycle;Max_cycle;Signal;HPM_P1;HPM_P2
2024/01/01 00:01:11;;;;;;;39.17;26.90;;;8.60;99.90;;;;;;6340907;22;20064;-90
2024/01/01 00:03:44;;;;;;;39.90;24.08;;;8.60;99.90;;;;;;6342775;22;20010;-90
2024/01/01 00:06:13;;;;;;;34.80;18.83;;;8.60;99.90;;;;;;6340953;22;20003;-91
2024/01/01 00:08:38;;;;;;;43.58;20.65;;;8.60;99.90;;;;;;6340437;22;19991;-86
2024/01/01 00:11:10;;;;;;;30.75;17.85;;;8.50;99.90;;;;;;6339391;22;20005;-89
2024/01/01 00:13:36;;;;;;;40.30;19.80;;;8.50;99.90;;;;;;6339545;22;20034;-91
2024/01/01 00:16:02;;;;;;;33.03;19.02;;;8.50;99.90;;;;;;6339057;22;20281;-88
2024/01/01 00:18:29;;;;;;;84.45;34.53;;;8.50;99.90;;;;;;6339194;22;20322;-87
2024/01/01 00:21:02;;;;;;;31.38;14.73;;;8.50;99.90;;;;;;6340222;22;20018;-92
2024/01/01 00:23:28;;;;;;;24.25;14.48;;;8.50;99.90;;;;;;6340373;22;20078;-90
2024/01/01 00:25:58;;;;;;;26.95;15.68;;;8.50;99.90;;;;;;6337486;22;20002;-89
2024/01/01 00:28:24;;;;;;;25.80;14.55;;;8.50;99.90;;;;;;6344515;22;20024;-89
2024/01/01 00:30:50;;;;;;;22.30;15.40;;;8.50;99.90;;;;;;6353243;22;20086;-86
2024/01/01 00:33:22;;;;;;;21.77;10.73;;;8.50;99.90;;;;;;6343525;22;20022;-89
2024/01/01 00:35:49;;;;;;;28.02;13.20;;;8.50;99.90;;;;;;6339295;22;20024;-90
2024/01/01 00:38:20;;;;;;;20.23;9.57;;;8.50;99.90;;;;;;6338613;22;20030;-90
2024/01/01 00:40:46;;;;;;;17.60;9.07;;;8.40;99.90;;;;;;6336831;22;20006;-88
2024/01/01 00:43:11;;;;;;;18.15;7.70;;;8.40;99.90;;;;;;6337939;22;20007;-88
2024/01/01 00:45:37;;;;;;;13.95;6.75;;;8.40;99.90;;;;;;6342267;22;20038;-87
2024/01/01 00:48:03;;;;;;;21.40;11.25;;;8.40;99.90;;;;;;6342381;22;19998;-89
2024/01/01 00:50:29;;;;;;;22.98;10.95;;;8.40;99.90;;;;;;6339987;22;20128;-89
2024/01/01 00:52:56;;;;;;;49.75;31.58;;;8.40;99.90;;;;;;6337349;22;20035;-87
2024/01/01 00:55:22;;;;;;;22.15;10.60;;;8.40;99.90;;;;;;6343314;22;19999;-87
2024/01/01 00:57:53;;;;;;;30.80;12.50;;;8.40;99.90;;;;;;6344436;22;20006;-88
2024/01/01 01:00:21;;;;;;;15.02;8.02;;;8.40;99.90;;;;;;6341441;22;20015;-92
2024/01/01 01:02:47;;;;;;;15.73;6.90;;;8.40;99.90;;;;;;6336741;22;19998;-88
2024/01/01 01:05:12;;;;;;;14.48;7.38;;;8.40;99.90;;;;;;6338029;22;20013;-88
2024/01/01 01:07:38;;;;;;;12.50;6.57;;;8.30;99.90;;;;;;6338672;22;20041;-88
2024/01/01 01:10:04;;;;;;;17.80;7.25;;;8.40;99.90;;;;;;6339550;22;20045;-88
2024/01/01 01:12:30;;;;;;;14.73;6.40;;;8.40;99.90;;;;;;6339160;22;20007;-88
2024/01/01 01:14:55;;;;;;;13.95;6.50;;;8.40;99.90;;;;;;6338293;22;20143;-88
2024/01/01 01:17:21;;;;;;;11.57;5.25;;;8.40;99.90;;;;;;6339649;22;20069;-86
2024/01/01 01:19:46;;;;;;;8.98;4.30;;;8.40;99.90;;;;;;6339353;22;20027;-88
2024/01/01 01:22:12;;;;;;;15.27;4.88;;;8.40;99.90;;;;;;6339964;22;20003;-88
2024/01/01 01:24:37;;;;;;;10.27;4.88;;;8.40;99.90;;;;;;6339485;22;19999;-89
2024/01/01 01:27:03;;;;;;;12.73;4.97;;;8.40;99.90;;;;;;6339590;22;19999;-89
2024/01/01 01:29:28;;;;;;;14.85;5.30;;;8.40;99.90;;;;;;6339553;22;20478;-89
2024/01/01 01:31:54;;;;;;;16.13;4.93;;;8.40;99.90;;;;;;6341503;22;20002;-88
2024/01/01 01:34:21;;;;;;;11.98;4.32;;;8.40;99.90;;;;;;6342936;22;20078;-89
2024/01/01 01:36:48;;;;;;;18.90;7.07;;;8.40;99.90;;;;;;6340157;22;20323;-90
2024/01/01 01:39:13;;;;;;;18.42;6.80;;;8.40;99.90;;;;;;6341982;22;20005;-89
2024/01/01 01:41:39;;;;;;;19.10;7.10;;;8.40;99.90;;;;;;6347162;22;20426;-89
2024/01/01 01:44:05;;;;;;;11.38;4.45;;;8.30;99.90;;;;;;6344777;22;20002;-88
2024/01/01 01:46:32;;;;;;;12.95;4.65;;;8.30;99.90;;;;;;6342080;22;19999;-89
2024/01/01 01:49:01;;;;;;;24.05;5.97;;;8.30;99.90;;;;;;6342782;22;20006;-90
2024/01/01 01:51:27;;;;;;;14.48;4.55;;;8.30;99.90;;;;;;6361058;22;19990;-89
2024/01/01 01:53:54;;;;;;;15.02;7.38;;;8.30;99.90;;;;;;6365406;22;20047;-89
2024/01/01 01:56:20;;;;;;;11.75;3.03;;;8.20;99.90;;;;;;6365833;22;20029;-89
2024/01/01 01:58:53;;;;;;;13.10;4.35;;;8.20;99.90;;;;;;6359036;22;20010;-89
2024/01/01 02:01:42;;;;;;;7.90;2.75;;;8.20;99.90;;;;;;6346571;22;20011;-90
2024/01/01 02:04:08;;;;;;;9.70;2.80;;;8.10;99.90;;;;;;6349318;22;20003;-90
2024/01/01 02:09:31;;;;;;;9.88;3.03;;;8.90;99.90;;;;;;6347278;22;20024;-91
2024/01/01 02:12:12;;;;;;;13.48;3.63;;;8.20;99.90;;;;;;6350317;22;20107;-90
2024/01/01 02:14:38;;;;;;;8.95;2.83;;;9.00;99.90;;;;;;6348989;22;20006;-91
2024/01/01 02:17:05;;;;;;;26.00;11.75;;;8.00;99.90;;;;;;6349803;22;19999;-90
2024/01/01 02:19:31;;;;;;;9.85;3.15;;;8.20;99.90;;;;;;6338509;22;20011;-87
2024/01/01 02:21:58;;;;;;;12.68;3.25;;;9.00;99.90;;;;;;6338093;22;20007;-88
2024/01/01 02:24:33;;;;;;;20.90;3.60;;;8.10;99.90;;;;;;6337687;22;20419;-87
2024/01/01 02:27:00;;;;;;;13.70;4.47;;;8.90;99.90;;;;;;6338367;22;20335;-88
2024/01/01 02:29:26;;;;;;;16.08;4.25;;;8.10;99.90;;;;;;6338865;22;20007;-88
2024/01/01 02:31:52;;;;;;;18.55;3.72;;;8.10;99.90;;;;;;6337246;22;19999;-87
2024/01/01 02:34:18;;;;;;;15.15;3.97;;;8.20;99.90;;;;;;6338420;22;20053;-89
2024/01/01 02:36:44;;;;;;;10.55;3.42;;;8.20;99.90;;;;;;6338421;22;19999;-89
2024/01/01 02:39:11;;;;;;;13.38;3.95;;;8.20;99.90;;;;;;6347096;22;20003;-87
2024/01/01 02:41:37;;;;;;;15.13;3.88;;;8.20;99.90;;;;;;6344949;22;20074;-88
2024/01/01 02:44:05;;;;;;;10.40;3.55;;;8.20;99.90;;;;;;6341080;22;19999;-90
2024/01/01 02:46:36;;;;;;;24.63;4.97;;;8.20;99.90;;;;;;6338753;22;20071;-89
2024/01/01 02:49:02;;;;;;;15.15;3.80;;;8.30;99.90;;;;;;6339194;22;20014;-89
2024/01/01 02:51:29;;;;;;;13.18;3.17;;;8.20;99.90;;;;;;6339315;22;20003;-91
2024/01/01 02:53:56;;;;;;;14.80;4.13;;;8.30;99.90;;;;;;6338300;22;20001;-90
2024/01/01 02:56:24;;;;;;;11.68;3.22;;;8.20;99.90;;;;;;6339277;22;20026;-91
2024/01/01 02:58:52;;;;;;;22.52;3.75;;;8.30;99.90;;;;;;6339914;22;20045;-89
2024/01/01 03:01:19;;;;;;;14.85;3.15;;;8.30;99.90;;;;;;6338596;22;20426;-89
2024/01/01 03:03:46;;;;;;;7.60;2.50;;;8.30;99.90;;;;;;6338365;22;19999;-90
2024/01/01 03:06:16;;;;;;;10.60;3.58;;;8.30;99.90;;;;;;6337711;22;20342;-90
2024/01/01 03:08:43;;;;;;;15.75;3.45;;;8.30;99.90;;;;;;6338863;22;19999;-90
2024/01/01 03:11:09;;;;;;;17.48;2.95;;;8.30;99.90;;;;;;6343316;22;20019;-90
2024/01/01 03:13:51;;;;;;;12.65;2.55;;;8.30;99.90;;;;;;6355462;22;20010;-90
2024/01/01 03:16:18;;;;;;;10.18;3.50;;;8.30;99.90;;;;;;6340266;22;20009;-90
2024/01/01 03:18:45;;;;;;;18.63;4.25;;;8.30;99.90;;;;;;6341072;22;20086;-90
2024/01/01 03:21:15;;;;;;;15.50;3.85;;;8.30;99.90;;;;;;6340824;22;20011;-90
2024/01/01 03:23:45;;;;;;;20.17;3.90;;;8.30;99.90;;;;;;6342045;22;20003;-89
2024/01/01 03:26:11;;;;;;;18.60;3.50;;;8.30;99.90;;;;;;6344271;22;19999;-90
2024/01/01 03:28:37;;;;;;;17.88;3.92;;;8.30;99.90;;;;;;6345467;22;20044;-90
2024/01/01 03:31:05;;;;;;;12.65;2.95;;;8.30;99.90;;;;;;6349277;22;20006;-91
2024/01/01 03:33:34;;;;;;;15.75;2.90;;;8.30;99.90;;;;;;6345057;22;20014;-90
2024/01/01 03:36:00;;;;;;;20.75;4.22;;;8.80;99.90;;;;;;6341303;22;20030;-90
2024/01/01 03:38:35;;;;;;;21.52;3.83;;;8.30;99.90;;;;;;6341364;22;20003;-91
2024/01/01 03:41:02;;;;;;;19.52;4.10;;;8.40;99.90;;;;;;6340361;22;20011;-90
2024/01/01 03:43:30;;;;;;;17.02;3.42;;;8.30;99.90;;;;;;6341202;22;19994;-91
2024/01/01 03:46:03;;;;;;;20.77;4.25;;;8.30;99.90;;;;;;6340522;22;19999;-91
2024/01/01 03:48:31;;;;;;;20.83;3.92;;;8.40;99.90;;;;;;6340442;22;19998;-89
2024/01/01 03:50:57;;;;;;;19.90;3.90;;;8.30;99.90;;;;;;6340172;22;20111;-90
2024/01/01 03:53:23;;;;;;;20.60;3.47;;;8.40;99.90;;;;;;6340635;22;20057;-90
2024/01/01 03:55:49;;;;;;;17.25;3.58;;;8.30;99.90;;;;;;6339414;22;20011;-89
2024/01/01 03:58:16;;;;;;;24.75;4.85;;;8.30;99.90;;;;;;6340909;22;20030;-89
2024/01/01 04:00:43;;;;;;;24.05;4.00;;;8.30;99.90;;;;;;6340162;22;20014;-90
2024/01/01 04:03:09;;;;;;;14.32;3.65;;;8.30;99.90;;;;;;6340023;22;20082;-90
2024/01/01 04:05:35;;;;;;;13.43;3.42;;;8.30;99.90;;;;;;6340057;22;19998;-90
2024/01/01 04:08:04;;;;;;;18.00;4.45;;;8.40;99.90;;;;;;6340574;22;20040;-90
2024/01/01 04:10:31;;;;;;;17.90;2.90;;;8.30;99.90;;;;;;6338842;22;20427;-89
2024/01/01 04:12:57;;;;;;;16.65;3.67;;;8.30;99.90;;;;;;6339531;22;20010;-90
2024/01/01 04:15:23;;;;;;;13.63;2.58;;;8.30;99.90;;;;;;6339422;22;19998;-89
2024/01/01 04:17:50;;;;;;;14.57;3.05;;;8.30;99.90;;;;;;6339065;22;20010;-88
2024/01/01 04:20:20;;;;;;;10.18;2.65;;;8.30;99.90;;;;;;6346866;22;20041;-89
2024/01/01 04:22:51;;;;;;;14.47;3.07;;;8.30;99.90;;;;;;6349287;22;20493;-89
2024/01/01 04:25:19;;;;;;;12.48;2.90;;;8.30;99.90;;;;;;6347553;22;20022;-89
2024/01/01 04:27:51;;;;;;;12.57;3.00;;;8.30;99.90;;;;;;6339758;22;20003;-89
2024/01/01 04:30:17;;;;;;;14.07;3.00;;;8.20;99.90;;;;;;6339603;22;20010;-90
2024/01/01 04:32:43;;;;;;;15.07;3.13;;;8.20;99.90;;;;;;6347001;22;20150;-92
2024/01/01 04:35:11;;;;;;;15.13;2.85;;;8.20;99.90;;;;;;6358371;22;20007;-90
2024/01/01 04:37:39;;;;;;;18.08;2.83;;;8.20;99.90;;;;;;6341358;22;20037;-91
2024/01/01 04:40:07;;;;;;;19.38;3.00;;;8.20;99.90;;;;;;6340760;22;20327;-91
2024/01/01 04:42:38;;;;;;;18.98;3.38;;;8.20;99.90;;;;;;6344537;22;20630;-90
2024/01/01 04:45:08;;;;;;;;;;;8.90;99.90;;;;;;6340812;22;20104;-89
2024/01/01 04:47:34;;;;;;;12.82;3.03;;;8.10;99.90;;;;;;6340874;22;19905;-92
2024/01/01 04:50:06;;;;;;;17.55;3.55;;;8.20;99.90;;;;;;6341355;22;19999;-90
2024/01/01 04:52:38;;;;;;;14.80;3.30;;;8.10;99.90;;;;;;6341715;22;20023;-91
2024/01/01 04:55:04;;;;;;;16.00;2.97;;;8.10;99.90;;;;;;6345115;22;20006;-91
2024/01/01 04:57:31;;;;;;;17.48;3.63;;;8.10;99.90;;;;;;6350204;22;19999;-91
2024/01/01 04:59:58;;;;;;;17.98;4.18;;;8.10;99.90;;;;;;6341755;22;20018;-92
2024/01/01 05:02:23;;;;;;;15.93;3.95;;;8.10;99.90;;;;;;6341392;22;20006;-91
2024/01/01 05:04:49;;;;;;;20.60;4.18;;;8.10;99.90;;;;;;6352489;22;20006;-89
2024/01/01 05:07:16;;;;;;;17.55;3.67;;;8.10;99.90;;;;;;6366050;22;19995;-89
2024/01/01 05:09:45;;;;;;;24.83;4.13;;;8.10;99.90;;;;;;6366286;22;20011;-89
2024/01/01 05:12:16;;;;;;;24.73;3.92;;;8.10;99.90;;;;;;6349532;22;20023;-90
2024/01/01 05:14:42;;;;;;;22.40;3.35;;;8.10;99.90;;;;;;6341683;22;20002;-89
2024/01/01 05:17:17;;;;;;;21.52;3.83;;;8.10;99.90;;;;;;6340547;22;20030;-90
2024/01/01 05:19:50;;;;;;;19.42;3.45;;;8.20;99.90;;;;;;6339087;22;20486;-89
2024/01/01 05:22:16;;;;;;;19.77;4.32;;;8.10;99.90;;;;;;6347149;22;20029;-89
2024/01/01 05:24:43;;;;;;;16.88;4.13;;;8.30;99.90;;;;;;6347813;22;19995;-90
2024/01/01 05:27:13;;;;;;;13.32;4.18;;;8.10;99.90;;;;;;6340391;22;20039;-90
2024/01/01 05:29:43;;;;;;;14.80;3.08;;;8.20;99.90;;;;;;6343178;22;20319;-88
2024/01/01 05:32:09;;;;;;;16.88;3.78;;;8.20;99.90;;;;;;6344125;22;20026;-88
2024/01/01 05:34:41;;;;;;;26.83;3.67;;;8.20;99.90;;;;;;6343652;22;20006;-88
2024/01/01 05:37:08;;;;;;;11.60;2.88;;;8.20;99.90;;;;;;6311956;22;20006;-89
2024/01/01 05:39:42;;;;;;;16.15;2.78;;;8.20;99.90;;;;;;6338658;22;20048;-89
2024/01/01 05:42:15;;;;;;;14.35;4.15;;;8.20;99.90;;;;;;6339708;22;20034;-89
2024/01/01 05:44:47;;;;;;;20.38;3.42;;;8.20;99.90;;;;;;6339392;22;20030;-89
2024/01/01 05:47:15;;;;;;;19.10;3.35;;;8.20;99.90;;;;;;6339736;22;20007;-90
2024/01/01 05:49:40;;;;;;;17.95;4.00;;;8.20;99.90;;;;;;6341603;22;20431;-89
2024/01/01 05:52:10;;;;;;;15.02;3.55;;;8.20;99.90;;;;;;6339241;22;20006;-90
2024/01/01 05:54:36;;;;;;;16.33;3.13;;;8.20;99.90;;;;;;6353491;22;20025;-91
2024/01/01 05:57:10;;;;;;;21.17;3.65;;;8.20;99.90;;;;;;6349077;22;20009;-90
2024/01/01 05:59:38;;;;;;;13.00;2.95;;;8.20;99.90;;;;;;6345897;22;20026;-90
2024/01/01 06:02:04;;;;;;;15.82;2.90;;;8.20;99.90;;;;;;6340070;22;20011;-90
2024/01/01 06:04:32;;;;;;;19.17;4.60;;;8.20;99.90;;;;;;6351370;22;20006;-89
2024/01/01 06:06:57;;;;;;;23.10;3.78;;;8.30;99.90;;;;;;6356874;22;20021;-89
2024/01/01 06:09:31;;;;;;;19.23;3.10;;;8.20;99.90;;;;;;6348927;22;20315;-90
2024/01/01 06:11:57;;;;;;;18.60;3.33;;;8.60;99.90;;;;;;6340454;22;20025;-90
2024/01/01 06:14:40;;;;;;;13.27;3.03;;;8.20;99.90;;;;;;6342741;22;20003;-90
2024/01/01 06:17:08;;;;;;;14.55;3.05;;;8.30;99.90;;;;;;6340266;22;20486;-92
2024/01/01 06:19:35;;;;;;;14.15;3.85;;;8.20;99.90;;;;;;6339238;22;20415;-90
2024/01/01 06:22:04;;;;;;;13.30;2.90;;;8.30;99.90;;;;;;6339891;22;20068;-90
2024/01/01 06:24:32;;;;;;;22.40;4.18;;;8.30;99.90;;;;;;6340097;22;20039;-90
2024/01/01 06:26:57;;;;;;;16.50;3.33;;;8.30;99.90;;;;;;6343614;22;20003;-89
2024/01/01 06:29:26;;;;;;;22.15;3.35;;;8.30;99.90;;;;;;6345434;22;20030;-88
2024/01/01 06:31:56;;;;;;;19.15;3.25;;;8.30;99.90;;;;;;6342885;22;20474;-89
2024/01/01 06:34:23;;;;;;;13.77;2.67;;;8.30;99.90;;;;;;6344299;22;20461;-89
2024/01/01 06:36:50;;;;;;;20.42;3.45;;;8.20;99.90;;;;;;6341286;22;19999;-90
2024/01/01 06:39:17;;;;;;;15.45;3.72;;;8.80;99.90;;;;;;6339198;22;20021;-90
2024/01/01 06:41:43;;;;;;;16.08;2.97;;;8.10;99.90;;;;;;6339041;22;19999;-90
2024/01/01 06:44:09;;;;;;;13.52;3.13;;;8.20;99.90;;;;;;6338845;22;20008;-88
2024/01/01 06:46:36;;;;;;;17.27;3.65;;;8.20;99.90;;;;;;6340440;22;20030;-92
2024/01/01 06:49:05;;;;;;;21.05;2.97;;;8.20;99.90;;;;;;6340079;22;19995;-89
2024/01/01 06:51:38;;;;;;;12.73;3.10;;;8.20;99.90;;;;;;6339599;22;20006;-90
2024/01/01 06:54:05;;;;;;;20.75;4.10;;;8.10;99.90;;;;;;6341183;22;20001;-90
2024/01/01 06:56:40;;;;;;;15.35;2.90;;;8.20;99.90;;;;;;6341472;22;20002;-88
2024/01/01 06:59:16;;;;;;;12.60;2.90;;;8.20;99.90;;;;;;6341221;22;19995;-89
2024/01/01 07:01:54;;;;;;;18.83;3.40;;;8.30;99.90;;;;;;6341442;22;20499;-90
2024/01/01 07:04:21;;;;;;;16.45;3.47;;;8.30;99.90;;;;;;6342319;22;20070;-89
2024/01/01 07:06:46;;;;;;;16.95;3.78;;;8.30;99.90;;;;;;6340747;22;20029;-89
2024/01/01 07:09:14;;;;;;;24.77;2.90;;;8.30;99.90;;;;;;6341234;22;20407;-89
2024/01/01 07:11:41;;;;;;;19.83;3.53;;;8.30;99.90;;;;;;6340906;22;20010;-88
2024/01/01 07:14:07;;;;;;;17.13;3.78;;;8.20;99.90;;;;;;6347162;22;20021;-88
2024/01/01 07:16:33;;;;;;;17.73;3.22;;;8.30;99.90;;;;;;6355595;22;20006;-89
2024/01/01 07:19:03;;;;;;;16.15;3.50;;;8.30;99.90;;;;;;6341119;22;20003;-89
2024/01/01 07:21:28;;;;;;;18.60;3.28;;;8.30;99.90;;;;;;6341281;22;20013;-88
2024/01/01 07:23:55;;;;;;;14.70;2.88;;;8.30;99.90;;;;;;6341207;22;20003;-89
2024/01/01 07:26:21;;;;;;;19.95;3.15;;;8.60;99.90;;;;;;6340679;22;19999;-89
2024/01/01 07:28:48;;;;;;;10.80;2.42;;;8.30;99.90;;;;;;6340846;22;20005;-88
2024/01/01 07:31:15;;;;;;;14.52;2.45;;;8.50;99.90;;;;;;6340748;22;20044;-90
2024/01/01 07:33:42;;;;;;;10.15;2.17;;;8.30;99.90;;;;;;6338131;22;20469;-89
2024/01/01 07:36:11;;;;;;;20.92;3.53;;;8.30;99.90;;;;;;6337406;22;19995;-89
2024/01/01 07:38:42;;;;;;;15.95;3.45;;;8.40;99.90;;;;;;6339122;22;20030;-88
2024/01/01 07:41:10;;;;;;;14.13;2.47;;;8.40;99.90;;;;;;6338833;22;20085;-89
2024/01/01 07:43:38;;;;;;;17.30;2.72;;;8.40;99.90;;;;;;6338380;22;19998;-89
2024/01/01 07:46:03;;;;;;;10.38;2.53;;;8.40;99.90;;;;;;6340160;22;20033;-88
2024/01/01 07:48:29;;;;;;;10.38;2.72;;;8.40;99.90;;;;;;6344076;22;20007;-88
2024/01/01 07:50:55;;;;;;;10.82;1.80;;;8.40;99.90;;;;;;6346964;22;20351;-89
2024/01/01 07:53:21;;;;;;;7.55;2.20;;;8.40;99.90;;;;;;6340514;22;20003;-88
2024/01/01 07:55:47;;;;;;;9.35;2.25;;;8.40;99.90;;;;;;6339201;22;20009;-88
2024/01/01 07:58:12;;;;;;;16.38;2.67;;;8.50;99.90;;;;;;6337881;22;19999;-87
2024/01/01 08:00:40;;;;;;;10.35;2.70;;;8.40;99.90;;;;;;6338938;22;20011;-86
2024/01/01 08:03:08;;;;;;;16.17;2.47;;;8.60;99.90;;;;;;6341319;22;20384;-87
2024/01/01 08:05:34;;;;;;;9.15;2.00;;;8.40;99.90;;;;;;6340783;22;20354;-88
2024/01/01 08:08:02;;;;;;;10.15;2.00;;;8.50;99.90;;;;;;6346298;22;19999;-88
2024/01/01 08:10:27;;;;;;;13.52;3.05;;;8.40;99.90;;;;;;6340353;22;20007;-86
2024/01/01 08:12:53;;;;;;;13.52;2.40;;;8.40;99.90;;;;;;6342863;22;19999;-87
2024/01/01 08:15:19;;;;;;;9.18;1.60;;;8.30;99.90;;;;;;6342806;22;20034;-86
2024/01/01 08:17:44;;;;;;;12.82;2.28;;;8.30;99.90;;;;;;6347057;22;20006;-88
2024/01/01 08:20:11;;;;;;;10.13;1.98;;;8.20;99.90;;;;;;6353980;22;20011;-87
2024/01/01 08:22:36;;;;;;;6.68;1.83;;;8.30;99.90;;;;;;6346490;22;20433;-90
2024/01/01 08:25:08;;;;;;;11.38;2.15;;;8.20;99.90;;;;;;6341126;22;20003;-89
2024/01/01 08:27:36;;;;;;;7.68;1.95;;;8.20;99.90;;;;;;6340463;22;20053;-89
2024/01/01 08:30:01;;;;;;;10.05;2.30;;;8.20;99.90;;;;;;6338342;22;20003;-83
2024/01/01 08:32:27;;;;;;;17.15;3.15;;;8.20;99.90;;;;;;6336433;22;20032;-85
2024/01/01 08:34:54;;;;;;;10.80;2.10;;;8.20;99.90;;;;;;6337262;22;20038;-84
2024/01/01 08:37:20;;;;;;;10.77;2.05;;;8.20;99.90;;;;;;6344119;22;20009;-86
2024/01/01 08:39:47;;;;;;;8.35;2.05;;;8.20;99.90;;;;;;6337473;22;20010;-91
2024/01/01 08:42:13;;;;;;;7.93;1.80;;;8.20;99.90;;;;;;6337635;22;20007;-85
2024/01/01 08:44:40;;;;;;;10.68;1.85;;;8.20;99.90;;;;;;6336514;22;20009;-89
2024/01/01 08:47:05;;;;;;;11.68;1.67;;;8.20;99.90;;;;;;6338321;22;20006;-89
2024/01/01 08:49:32;;;;;;;11.93;1.70;;;8.20;99.90;;;;;;6336340;22;20018;-87
2024/01/01 08:51:57;;;;;;;7.40;1.80;;;8.20;99.90;;;;;;6334616;22;20029;-86
2024/01/01 08:54:29;;;;;;;10.60;2.08;;;8.30;99.90;;;;;;6335285;22;20423;-89
2024/01/01 08:56:55;;;;;;;9.90;1.95;;;8.30;99.90;;;;;;6336281;22;19991;-87
2024/01/01 08:59:20;;;;;;;11.20;2.10;;;8.30;99.90;;;;;;6333429;22;19995;-85
2024/01/01 09:01:53;;;;;;;7.18;1.67;;;8.30;99.90;;;;;;6335972;22;20014;-89
2024/01/01 09:04:20;;;;;;;9.68;1.48;;;8.40;99.90;;;;;;6336206;22;20201;-89
2024/01/01 09:06:55;;;;;;;5.78;1.52;;;8.30;99.90;;;;;;6338002;22;20015;-90
2024/01/01 09:09:27;;;;;;;4.90;1.40;;;8.30;99.90;;;;;;6339296;22;20048;-92
2024/01/01 09:11:58;;;;;;;10.07;2.00;;;8.40;99.90;;;;;;6339691;22;20411;-91
2024/01/01 09:14:25;;;;;;;;;;;8.30;99.90;;;;;;6341799;22;20427;-91
2024/01/01 09:16:51;;;;;;;14.75;2.30;;;8.40;99.90;;;;;;6357950;22;19939;-94
2024/01/01 09:19:23;;;;;;;7.38;1.30;;;8.40;99.90;;;;;;6355493;22;20029;-93
2024/01/01 09:21:50;;;;;;;6.78;1.67;;;8.40;99.90;;;;;;6342747;22;20052;-89
2024/01/01 09:24:16;;;;;;;7.35;1.85;;;8.40;99.90;;;;;;6345279;22;20048;-92
2024/01/01 09:26:44;;;;;;;4.32;1.35;;;8.40;99.90;;;;;;6343005;22;20003;-91
2024/01/01 09:29:09;;;;;;;5.20;1.48;;;8.40;99.90;;;;;;6357037;22;20007;-92
2024/01/01 09:31:37;;;;;;;7.53;1.73;;;8.40;99.90;;;;;;6349823;22;20013;-91
2024/01/01 09:34:06;;;;;;;4.65;1.38;;;8.50;99.90;;;;;;6338657;22;20082;-89
2024/01/01 09:36:37;;;;;;;6.10;1.30;;;9.40;99.90;;;;;;6340971;22;20014;-85
2024/01/01 09:39:06;;;;;;;9.55;2.05;;;8.50;99.90;;;;;;6339430;22;19998;-90
2024/01/01 09:41:31;;;;;;;12.88;2.42;;;8.50;99.90;;;;;;6338378;22;20086;-86
2024/01/01 09:43:57;;;;;;;10.13;1.50;;;8.60;99.90;;;;;;6338061;22;20442;-88
2024/01/01 09:46:28;;;;;;;10.73;1.60;;;8.60;99.90;;;;;;6339137;22;20014;-91
2024/01/01 09:49:04;;;;;;;8.52;1.73;;;8.60;99.90;;;;;;6347658;22;20002;-91
2024/01/01 09:51:40;;;;;;;10.98;1.55;;;8.60;99.90;;;;;;6344586;22;20074;-89
2024/01/01 09:54:11;;;;;;;6.45;2.28;;;8.60;99.90;;;;;;6338171;22;20007;-90
2024/01/01 09:56:37;;;;;;;8.38;1.98;;;8.70;99.90;;;;;;6340730;22;20014;-90
2024/01/01 09:59:06;;;;;;;11.30;2.63;;;8.70;99.90;;;;;;6353048;22;20402;-87
2024/01/01 10:01:33;;;;;;;7.35;2.30;;;8.70;99.90;;;;;;6337936;22;20017;-87
2024/01/01 10:04:06;;;;;;;13.05;2.15;;;8.60;99.90;;;;;;6340018;22;20460;-86
2024/01/01 10:06:34;;;;;;;13.10;2.40;;;8.70;99.90;;;;;;6337323;22;20006;-88
2024/01/01 10:09:10;;;;;;;13.32;2.53;;;8.70;99.90;;;;;;6335075;22;19999;-86
2024/01/01 10:11:44;;;;;;;9.60;2.20;;;8.70;99.90;;;;;;6336326;22;20006;-87
2024/01/01 10:14:11;;;;;;;8.82;2.13;;;8.70;99.90;;;;;;6338995;22;20010;-91
2024/01/01 10:16:38;;;;;;;13.20;2.53;;;8.80;99.90;;;;;;6342833;22;20010;-91
2024/01/01 10:19:06;;;;;;;13.00;2.33;;;8.80;99.90;;;;;;6342363;22;20502;-90
2024/01/01 10:21:34;;;;;;;19.27;2.03;;;8.80;99.90;;;;;;6339861;22;20089;-84
2024/01/01 10:24:15;;;;;;;12.27;2.25;;;8.80;99.90;;;;;;6336474;22;20472;-86
2024/01/01 10:26:45;;;;;;;14.32;2.78;;;8.90;99.90;;;;;;6336928;22;20003;-88
2024/01/01 10:29:12;;;;;;;;;;;8.90;99.90;;;;;;6340796;22;19999;-90
2024/01/01 10:31:45;;;;;;;11.77;1.80;;;8.90;99.90;;;;;;6340310;22;19926;-91
2024/01/01 10:34:12;;;;;;;14.50;2.90;;;8.90;99.90;;;;;;6341943;22;20354;-89
2024/01/01 10:36:44;;;;;;;16.73;2.88;;;8.90;99.90;;;;;;6342619;22;20336;-94
2024/01/01 10:39:12;;;;;;;11.43;2.10;;;9.00;99.90;;;;;;6343834;22;20006;-93
2024/01/01 10:41:41;;;;;;;13.85;2.13;;;9.00;99.90;;;;;;6345624;22;20003;-90
2024/01/01 10:44:12;;;;;;;15.52;2.40;;;9.00;99.90;;;;;;6339251;22;20003;-91
2024/01/01 10:46:47;;;;;;;11.93;3.22;;;9.10;99.90;;;;;;6335953;22;20003;-84
2024/01/01 10:49:29;;;;;;;16.63;2.97;;;9.20;99.90;;;;;;6343134;22;20070;-90
2024/01/01 10:52:16;;;;;;;9.25;2.25;;;9.10;99.90;;;;;;6334677;22;20009;-83
2024/01/01 10:55:21;;;;;;;15.82;2.53;;;9.10;99.90;;;;;;6340689;22;20056;-92
2024/01/01 10:58:32;;;;;;;12.57;3.42;;;9.10;99.90;;;;;;6340166;22;19995;-89
2024/01/01 11:01:10;;;;;;;20.70;3.45;;;9.00;99.90;;;;;;6314489;22;20034;-91
2024/01/01 11:03:46;;;;;;;16.90;2.78;;;9.10;99.90;;;;;;6339177;22;20006;-91
2024/01/01 11:06:31;;;;;;;22.65;3.28;;;9.10;99.90;;;;;;6347561;22;20002;-90
2024/01/01 11:09:19;;;;;;;14.50;2.97;;;9.10;99.90;;;;;;6336524;22;20006;-91
2024/01/01 11:11:50;;;;;;;18.65;2.85;;;9.20;99.90;;;;;;6337859;22;20003;-90
2024/01/01 11:14:38;;;;;;;20.75;2.85;;;9.20;99.90;;;;;;6341783;22;20007;-89
2024/01/01 11:17:09;;;;;;;20.48;2.58;;;9.10;99.90;;;;;;6336973;22;20006;-86
2024/01/01 11:19:48;;;;;;;11.85;2.42;;;9.20;99.90;;;;;;6347928;22;20030;-86
2024/01/01 11:22:25;;;;;;;15.00;2.95;;;9.20;99.90;;;;;;6333613;22;20006;-89
2024/01/01 11:24:53;;;;;;;12.18;2.30;;;9.20;99.90;;;;;;6336237;22;20086;-88
2024/01/01 11:27:33;;;;;;;13.77;3.00;;;9.20;99.90;;;;;;6350902;22;20025;-91
2024/01/01 11:30:06;;;;;;;13.75;3.75;;;9.30;99.90;;;;;;6360642;22;19999;-91
2024/01/01 11:32:35;;;;;;;14.20;3.75;;;9.20;99.90;;;;;;6349429;22;20015;-90
2024/01/01 11:35:16;;;;;;;19.65;3.25;;;9.30;99.90;;;;;;6341050;22;20002;-92
2024/01/01 11:37:44;;;;;;;24.08;3.67;;;9.30;99.90;;;;;;6338369;22;20002;-91
2024/01/01 11:40:11;;;;;;;21.10;4.07;;;9.30;99.90;;;;;;6339341;22;20042;-90
2024/01/01 11:42:41;;;;;;;18.60;3.03;;;9.30;99.90;;;;;;6339743;22;20003;-90
2024/01/01 11:45:16;;;;;;;15.90;2.92;;;9.20;99.90;;;;;;6337789;22;20077;-88
2024/01/01 11:47:43;;;;;;;17.73;2.92;;;9.10;99.90;;;;;;6339658;22;20365;-91
2024/01/01 11:50:10;;;;;;;13.23;2.90;;;9.10;99.90;;;;;;6341905;22;20006;-90
2024/01/01 11:52:40;;;;;;;15.50;3.15;;;9.10;99.90;;;;;;6342207;22;20369;-91
2024/01/01 11:55:06;;;;;;;;;;;9.10;99.90;;;;;;6338187;22;20450;-84
2024/01/01 11:57:34;;;;;;;17.30;3.90;;;9.10;99.90;;;;;;6335686;22;19981;-88
2024/01/01 12:00:13;;;;;;;12.93;2.28;;;9.00;99.90;;;;;;6337824;22;20010;-90
2024/01/01 12:02:43;;;;;;;22.08;4.07;;;9.00;99.90;;;;;;6340263;22;20090;-89
2024/01/01 12:05:09;;;;;;;18.08;2.85;;;9.10;99.90;;;;;;6338542;22;20140;-89
2024/01/01 12:07:35;;;;;;;8.55;2.03;;;8.70;99.90;;;;;;6337825;22;20041;-88
2024/01/01 12:10:07;;;;;;;10.73;1.58;;;8.70;99.90;;;;;;6338899;22;20015;-91
2024/01/01 12:12:38;;;;;;;14.40;2.20;;;8.60;99.90;;;;;;6337231;22;20068;-85
2024/01/01 12:15:07;;;;;;;;;;;8.50;99.90;;;;;;6308684;22;20519;-88
2024/01/01 12:17:57;;;;;;;10.30;1.98;;;8.40;99.90;;;;;;6338454;22;19903;-92
2024/01/01 12:20:24;;;;;;;10.98;2.17;;;8.60;99.90;;;;;;6338316;22;20029;-92
2024/01/01 12:22:52;;;;;;;18.75;3.00;;;8.40;99.90;;;;;;6346768;22;20010;-92
2024/01/01 12:25:23;;;;;;;17.80;3.08;;;8.40;99.90;;;;;;6343646;22;20003;-89
2024/01/01 12:28:04;;;;;;;15.85;3.15;;;8.40;99.90;;;;;;6311928;22;20583;-93
2024/01/01 12:30:37;;;;;;;17.80;3.17;;;8.40;99.90;;;;;;6340771;22;20010;-91
2024/01/01 12:33:04;;;;;;;16.02;2.95;;;9.00;99.90;;;;;;6344379;22;20018;-91
2024/01/01 12:35:37;;;;;;;18.52;3.45;;;8.40;99.90;;;;;;6344193;22;20013;-91
2024/01/01 12:38:04;;;;;;;12.93;2.20;;;8.50;99.90;;;;;;6340349;22;20037;-90
2024/01/01 12:40:29;;;;;;;7.85;1.80;;;8.40;99.90;;;;;;6358605;22;20018;-92
2024/01/01 12:42:56;;;;;;;14.40;2.58;;;8.30;99.90;;;;;;6344064;22;20003;-89
2024/01/01 12:45:23;;;;;;;13.65;2.15;;;8.30;99.90;;;;;;6339148;22;20426;-92
2024/01/01 12:47:55;;;;;;;13.40;3.45;;;8.30;99.90;;;;;;6343731;22;20411;-89
2024/01/01 12:50:24;;;;;;;14.30;2.78;;;8.30;99.90;;;;;;6345293;22;20030;-91
2024/01/01 12:52:50;;;;;;;14.98;2.80;;;8.40;99.90;;;;;;6344816;22;19999;-89
2024/01/01 12:55:18;;;;;;;14.10;2.25;;;8.50;99.90;;;;;;6347769;22;20062;-92
2024/01/01 12:57:44;;;;;;;11.68;2.10;;;8.40;99.90;;;;;;6343959;22;20089;-88
2024/01/01 13:00:11;;;;;;;14.18;3.22;;;8.40;99.90;;;;;;6339522;22;20003;-87